Skip Navigation Links
NOAA logo - Click to go to the NOAA homepage
NOAA's National Weather Service
Alaska Aviation Weather Unit
  NWS logo - Click to go to the NWS homepage
Left Navbar Graphic     09 AKDT = 17 GMT

   
NOAA is celebrating 200 years of science, service, and stewardship. Visit the NOAA 200th celebration Web site to learn more.
USA.gov is the U.S. Government's official Web portal to all Federal, state and local government Web resources and services.
Facebook
NWS on Facebook

Important Change Regarding the AAWU Web Presence

 

Over the last several months, the AAWU has been working to navigate its webpages to a nationally supported server. Security, as well as other needs, have necessitated the change.  In the process, we have made an effort to enhance the functionality of our website, as well as some of our products. As of June 20, 2017, aawu.arh.noaa.gov will be discontinued. The new AAWU web address is weather.gov/aawu. It is now live and will run in-parallel with the old site until it is discontinued. Please send any feedback or questions regarding the new webpages to nws.ar.aawu.webauthors@noaa.gov.  Thank you for your patience during this time of transition.
AAWU Home :: Display TAF Add Bookmark
PAMR 231153Z 17004KT 10SM FEW038 BKN048 OVC060 07/04 A2999 RMK AO2
     SLP156 T00670039 10100 20067 51003 $=

METAR PAMR 231253Z 00000KT 10SM BKN055 OVC080 06/04 A2999 RMK AO2 SLP156
     T00560039 $=

METAR PAMR 231353Z 00000KT 10SM BKN050 BKN080 OVC150 06/04 A3000 RMK
 AO2 SLP158 T00610039=

METAR PAMR 231453Z 00000KT 10SM FEW039 BKN055 BKN150 07/04 A2999 RMK AO2
     SLP157 T00670039 50002=

METAR PAMR 231553Z AUTO 22011KT 10SM OVC050 08/02 A2999 RMK AO2 SLP157
     T00780022 TSNO=

METAR PAMR 231653Z 21009KT 10SM BKN043 OVC055 08/02 A2999 RMK AO2 SLP158
     T00780017=


NOAA's National Weather Service
Alaska Aviation Weather Unit
6930 Sand Lake Road
Anchorage, AK 99502-1845
Disclaimer
Credits
Glossary
Privacy Policy
About Us
Career Opportunities
Contact AAWU Internet Services Site last modified: April, 17th 2012